sensor_id;sensor_type;location;lat;lon;timestamp;temperature;humidity
14798;DHT22;7490;63.708;20.368;2023-05-10T00:01:04;9.10;94.50
14798;DHT22;7490;63.708;20.368;2023-05-10T00:03:29;9.10;94.60
14798;DHT22;7490;63.708;20.368;2023-05-10T00:05:55;9.00;94.50
14798;DHT22;7490;63.708;20.368;2023-05-10T00:08:21;9.00;94.60
14798;DHT22;7490;63.708;20.368;2023-05-10T00:10:47;9.00;94.60
14798;DHT22;7490;63.708;20.368;2023-05-10T00:13:12;8.90;94.70
14798;DHT22;7490;63.708;20.368;2023-05-10T00:15:38;8.90;94.70
14798;DHT22;7490;63.708;20.368;2023-05-10T00:18:04;8.90;94.70
14798;DHT22;7490;63.708;20.368;2023-05-10T00:20:29;8.90;94.70
14798;DHT22;7490;63.708;20.368;2023-05-10T00:22:55;8.90;94.70
14798;DHT22;7490;63.708;20.368;2023-05-10T00:25:21;8.90;94.80
14798;DHT22;7490;63.708;20.368;2023-05-10T00:27:49;8.80;94.90
14798;DHT22;7490;63.708;20.368;2023-05-10T00:30:15;8.80;95.00
14798;DHT22;7490;63.708;20.368;2023-05-10T00:32:41;8.80;95.00
14798;DHT22;7490;63.708;20.368;2023-05-10T00:35:07;8.80;95.10
14798;DHT22;7490;63.708;20.368;2023-05-10T00:37:33;8.80;95.20
14798;DHT22;7490;63.708;20.368;2023-05-10T00:40:00;8.80;95.20
14798;DHT22;7490;63.708;20.368;2023-05-10T00:42:25;8.80;95.20
14798;DHT22;7490;63.708;20.368;2023-05-10T00:44:51;8.80;95.20
14798;DHT22;7490;63.708;20.368;2023-05-10T00:47:17;8.80;95.20
14798;DHT22;7490;63.708;20.368;2023-05-10T00:49:43;8.80;95.20
14798;DHT22;7490;63.708;20.368;2023-05-10T00:52:09;8.80;95.20
14798;DHT22;7490;63.708;20.368;2023-05-10T00:54:35;8.80;95.60
14798;DHT22;7490;63.708;20.368;2023-05-10T00:57:01;8.80;95.20
14798;DHT22;7490;63.708;20.368;2023-05-10T00:59:28;8.70;95.30
14798;DHT22;7490;63.708;20.368;2023-05-10T01:01:54;8.70;95.30
14798;DHT22;7490;63.708;20.368;2023-05-10T01:04:20;8.70;95.40
14798;DHT22;7490;63.708;20.368;2023-05-10T01:06:51;8.70;95.40
14798;DHT22;7490;63.708;20.368;2023-05-10T01:09:17;8.70;95.40
14798;DHT22;7490;63.708;20.368;2023-05-10T01:11:43;8.70;95.40
14798;DHT22;7490;63.708;20.368;2023-05-10T01:14:10;8.60;95.50
14798;DHT22;7490;63.708;20.368;2023-05-10T01:16:38;8.60;95.60
14798;DHT22;7490;63.708;20.368;2023-05-10T01:19:12;8.60;95.70
14798;DHT22;7490;63.708;20.368;2023-05-10T01:21:53;8.50;95.70
14798;DHT22;7490;63.708;20.368;2023-05-10T01:33:29;8.50;96.00
14798;DHT22;7490;63.708;20.368;2023-05-10T01:36:03;8.50;96.00
14798;DHT22;7490;63.708;20.368;2023-05-10T01:38:51;8.50;96.00
14798;DHT22;7490;63.708;20.368;2023-05-10T01:44:24;8.50;96.10
14798;DHT22;7490;63.708;20.368;2023-05-10T01:47:01;8.50;96.20
14798;DHT22;7490;63.708;20.368;2023-05-10T01:49:34;8.40;96.20
14798;DHT22;7490;63.708;20.368;2023-05-10T01:52:14;8.40;96.30
14798;DHT22;7490;63.708;20.368;2023-05-10T01:54:59;8.50;96.40
14798;DHT22;7490;63.708;20.368;2023-05-10T01:57:27;8.40;96.30
14798;DHT22;7490;63.708;20.368;2023-05-10T01:59:56;8.50;96.50
14798;DHT22;7490;63.708;20.368;2023-05-10T02:02:24;8.50;96.50
14798;DHT22;7490;63.708;20.368;2023-05-10T02:04:51;8.50;96.60
14798;DHT22;7490;63.708;20.368;2023-05-10T02:07:19;8.50;96.50
14798;DHT22;7490;63.708;20.368;2023-05-10T02:09:45;8.50;96.50
14798;DHT22;7490;63.708;20.368;2023-05-10T02:12:15;8.50;96.50
14798;DHT22;7490;63.708;20.368;2023-05-10T02:14:42;8.50;96.50
14798;DHT22;7490;63.708;20.368;2023-05-10T02:17:08;8.50;96.50
14798;DHT22;7490;63.708;20.368;2023-05-10T02:19:37;8.50;96.50
14798;DHT22;7490;63.708;20.368;2023-05-10T02:22:04;8.50;96.70
14798;DHT22;7490;63.708;20.368;2023-05-10T02:24:30;8.50;96.70
14798;DHT22;7490;63.708;20.368;2023-05-10T02:26:57;8.60;96.70
14798;DHT22;7490;63.708;20.368;2023-05-10T02:29:25;8.50;96.70
14798;DHT22;7490;63.708;20.368;2023-05-10T02:31:54;8.50;96.70
14798;DHT22;7490;63.708;20.368;2023-05-10T02:34:21;8.50;96.70
14798;DHT22;7490;63.708;20.368;2023-05-10T02:36:50;8.50;96.70
14798;DHT22;7490;63.708;20.368;2023-05-10T02:39:18;8.50;96.90
14798;DHT22;7490;63.708;20.368;2023-05-10T02:41:45;8.50;96.90
14798;DHT22;7490;63.708;20.368;2023-05-10T02:44:14;8.50;96.90
14798;DHT22;7490;63.708;20.368;2023-05-10T02:46:41;8.50;96.90
14798;DHT22;7490;63.708;20.368;2023-05-10T02:49:07;8.50;96.90
14798;DHT22;7490;63.708;20.368;2023-05-10T02:51:35;8.50;96.90
14798;DHT22;7490;63.708;20.368;2023-05-10T02:54:10;8.60;97.00
14798;DHT22;7490;63.708;20.368;2023-05-10T02:56:42;8.60;96.90
14798;DHT22;7490;63.708;20.368;2023-05-10T02:59:10;8.50;96.90
14798;DHT22;7490;63.708;20.368;2023-05-10T03:01:36;8.50;97.00
14798;DHT22;7490;63.708;20.368;2023-05-10T03:04:02;8.60;97.00
14798;DHT22;7490;63.708;20.368;2023-05-10T03:06:27;8.50;97.00
14798;DHT22;7490;63.708;20.368;2023-05-10T03:08:54;8.50;97.00
14798;DHT22;7490;63.708;20.368;2023-05-10T03:11:44;8.50;97.00
14798;DHT22;7490;63.708;20.368;2023-05-10T03:17:48;8.50;97.00
14798;DHT22;7490;63.708;20.368;2023-05-10T03:19:54;8.50;97.00
14798;DHT22;7490;63.708;20.368;2023-05-10T03:22:37;8.50;97.00
14798;DHT22;7490;63.708;20.368;2023-05-10T03:25:06;8.50;97.10
14798;DHT22;7490;63.708;20.368;2023-05-10T03:27:32;8.50;97.10
14798;DHT22;7490;63.708;20.368;2023-05-10T03:29:59;8.50;97.20
14798;DHT22;7490;63.708;20.368;2023-05-10T03:32:26;8.50;97.20
14798;DHT22;7490;63.708;20.368;2023-05-10T03:34:54;8.50;97.20
14798;DHT22;7490;63.708;20.368;2023-05-10T03:37:19;8.50;97.20
14798;DHT22;7490;63.708;20.368;2023-05-10T03:39:45;8.50;97.20
14798;DHT22;7490;63.708;20.368;2023-05-10T03:42:10;8.60;97.20
14798;DHT22;7490;63.708;20.368;2023-05-10T03:44:40;8.50;97.10
14798;DHT22;7490;63.708;20.368;2023-05-10T03:47:06;8.50;97.20
14798;DHT22;7490;63.708;20.368;2023-05-10T03:49:31;8.50;97.10
14798;DHT22;7490;63.708;20.368;2023-05-10T03:51:57;8.50;97.20
14798;DHT22;7490;63.708;20.368;2023-05-10T03:54:23;8.50;97.20
14798;DHT22;7490;63.708;20.368;2023-05-10T03:56:48;8.50;97.30
14798;DHT22;7490;63.708;20.368;2023-05-10T03:59:14;8.50;97.40
14798;DHT22;7490;63.708;20.368;2023-05-10T04:01:40;8.60;97.50
14798;DHT22;7490;63.708;20.368;2023-05-10T04:04:06;8.70;97.80
14798;DHT22;7490;63.708;20.368;2023-05-10T04:06:32;8.80;97.80
14798;DHT22;7490;63.708;20.368;2023-05-10T04:08:57;8.80;97.80
14798;DHT22;7490;63.708;20.368;2023-05-10T04:11:25;8.90;98.20
14798;DHT22;7490;63.708;20.368;2023-05-10T04:13:51;9.20;98.50
14798;DHT22;7490;63.708;20.368;2023-05-10T04:16:16;9.50;99.00
14798;DHT22;7490;63.708;20.368;2023-05-10T04:18:42;9.90;98.40
14798;DHT22;7490;63.708;20.368;2023-05-10T04:21:14;10.00;97.80
14798;DHT22;7490;63.708;20.368;2023-05-10T04:23:40;10.20;97.50
14798;DHT22;7490;63.708;20.368;2023-05-10T04:26:06;10.30;97.50
14798;DHT22;7490;63.708;20.368;2023-05-10T04:28:31;10.40;97.00
14798;DHT22;7490;63.708;20.368;2023-05-10T04:31:04;10.40;97.10
14798;DHT22;7490;63.708;20.368;2023-05-10T04:33:31;10.70;98.00
14798;DHT22;7490;63.708;20.368;2023-05-10T04:35:56;10.90;98.30
14798;DHT22;7490;63.708;20.368;2023-05-10T04:38:22;11.20;98.10
14798;DHT22;7490;63.708;20.368;2023-05-10T04:40:48;11.60;97.80
14798;DHT22;7490;63.708;20.368;2023-05-10T04:43:13;12.10;97.10
14798;DHT22;7490;63.708;20.368;2023-05-10T04:45:39;12.50;96.10
14798;DHT22;7490;63.708;20.368;2023-05-10T04:48:05;12.90;94.70
14798;DHT22;7490;63.708;20.368;2023-05-10T04:50:30;12.90;93.40
14798;DHT22;7490;63.708;20.368;2023-05-10T04:52:57;12.80;92.60
14798;DHT22;7490;63.708;20.368;2023-05-10T04:55:23;12.60;92.10
14798;DHT22;7490;63.708;20.368;2023-05-10T04:57:49;12.30;91.70
14798;DHT22;7490;63.708;20.368;2023-05-10T05:00:15;11.90;91.60
14798;DHT22;7490;63.708;20.368;2023-05-10T05:02:44;11.60;91.70
14798;DHT22;7490;63.708;20.368;2023-05-10T05:05:11;11.30;91.90
14798;DHT22;7490;63.708;20.368;2023-05-10T05:07:37;11.10;92.10
14798;DHT22;7490;63.708;20.368;2023-05-10T05:10:07;10.80;92.30
14798;DHT22;7490;63.708;20.368;2023-05-10T05:12:33;10.60;92.60
14798;DHT22;7490;63.708;20.368;2023-05-10T05:14:59;10.40;92.80
14798;DHT22;7490;63.708;20.368;2023-05-10T05:17:25;10.30;93.20
14798;DHT22;7490;63.708;20.368;2023-05-10T05:19:51;10.20;93.40
14798;DHT22;7490;63.708;20.368;2023-05-10T05:22:16;10.20;93.50
14798;DHT22;7490;63.708;20.368;2023-05-10T05:24:42;10.10;93.60
14798;DHT22;7490;63.708;20.368;2023-05-10T05:27:08;10.10;93.70
14798;DHT22;7490;63.708;20.368;2023-05-10T05:29:33;10.20;94.10
14798;DHT22;7490;63.708;20.368;2023-05-10T05:31:59;10.20;94.40
14798;DHT22;7490;63.708;20.368;2023-05-10T05:34:25;10.40;94.60
14798;DHT22;7490;63.708;20.368;2023-05-10T05:36:52;10.80;95.10
14798;DHT22;7490;63.708;20.368;2023-05-10T05:39:17;11.30;95.10
14798;DHT22;7490;63.708;20.368;2023-05-10T05:41:43;11.90;94.80
14798;DHT22;7490;63.708;20.368;2023-05-10T05:44:09;12.30;93.70
14798;DHT22;7490;63.708;20.368;2023-05-10T05:46:35;12.50;92.50
14798;DHT22;7490;63.708;20.368;2023-05-10T05:49:01;12.40;92.20
14798;DHT22;7490;63.708;20.368;2023-05-10T05:51:26;12.40;92.30
14798;DHT22;7490;63.708;20.368;2023-05-10T05:53:52;12.40;92.40
14798;DHT22;7490;63.708;20.368;2023-05-10T05:56:18;12.80;93.20
14798;DHT22;7490;63.708;20.368;2023-05-10T05:58:50;13.50;93.40
14798;DHT22;7490;63.708;20.368;2023-05-10T06:01:15;14.40;92.70
14798;DHT22;7490;63.708;20.368;2023-05-10T06:03:41;14.80;90.30
14798;DHT22;7490;63.708;20.368;2023-05-10T06:06:07;14.90;89.80
14798;DHT22;7490;63.708;20.368;2023-05-10T06:08:33;15.30;89.50
14798;DHT22;7490;63.708;20.368;2023-05-10T06:10:59;15.40;85.80
14798;DHT22;7490;63.708;20.368;2023-05-10T06:13:25;15.20;84.90
14798;DHT22;7490;63.708;20.368;2023-05-10T06:16:00;15.30;86.40
14798;DHT22;7490;63.708;20.368;2023-05-10T06:18:26;15.90;87.80
14798;DHT22;7490;63.708;20.368;2023-05-10T06:20:52;16.80;86.30
14798;DHT22;7490;63.708;20.368;2023-05-10T06:23:17;17.80;86.00
14798;DHT22;7490;63.708;20.368;2023-05-10T06:25:43;19.00;82.00
14798;DHT22;7490;63.708;20.368;2023-05-10T06:28:09;19.90;77.10
14798;DHT22;7490;63.708;20.368;2023-05-10T06:30:36;20.60;74.20
14798;DHT22;7490;63.708;20.368;2023-05-10T06:33:02;21.30;71.60
14798;DHT22;7490;63.708;20.368;2023-05-10T06:35:28;21.80;68.60
14798;DHT22;7490;63.708;20.368;2023-05-10T06:37:54;22.40;66.20
14798;DHT22;7490;63.708;20.368;2023-05-10T06:40:20;22.70;63.90
14798;DHT22;7490;63.708;20.368;2023-05-10T06:42:47;23.10;63.50
14798;DHT22;7490;63.708;20.368;2023-05-10T06:45:14;23.30;61.40
14798;DHT22;7490;63.708;20.368;2023-05-10T06:47:40;23.60;60.00
14798;DHT22;7490;63.708;20.368;2023-05-10T06:50:07;23.90;58.80
14798;DHT22;7490;63.708;20.368;2023-05-10T06:52:33;24.10;57.90
14798;DHT22;7490;63.708;20.368;2023-05-10T06:54:59;24.30;57.10
14798;DHT22;7490;63.708;20.368;2023-05-10T06:57:25;24.50;56.80
14798;DHT22;7490;63.708;20.368;2023-05-10T06:59:51;24.70;55.80
14798;DHT22;7490;63.708;20.368;2023-05-10T07:02:17;24.70;55.10
14798;DHT22;7490;63.708;20.368;2023-05-10T07:04:43;24.90;55.20
14798;DHT22;7490;63.708;20.368;2023-05-10T07:07:09;25.20;54.50
14798;DHT22;7490;63.708;20.368;2023-05-10T07:09:35;25.70;53.90
14798;DHT22;7490;63.708;20.368;2023-05-10T07:12:00;26.10;53.40
14798;DHT22;7490;63.708;20.368;2023-05-10T07:14:27;26.20;51.30
14798;DHT22;7490;63.708;20.368;2023-05-10T07:16:53;26.00;50.80
14798;DHT22;7490;63.708;20.368;2023-05-10T07:19:19;25.60;50.50
14798;DHT22;7490;63.708;20.368;2023-05-10T07:21:45;25.10;51.00
14798;DHT22;7490;63.708;20.368;2023-05-10T07:24:10;25.10;51.70
14798;DHT22;7490;63.708;20.368;2023-05-10T07:26:36;25.10;51.40
14798;DHT22;7490;63.708;20.368;2023-05-10T07:29:02;25.00;50.70
14798;DHT22;7490;63.708;20.368;2023-05-10T07:31:28;25.00;51.00
14798;DHT22;7490;63.708;20.368;2023-05-10T07:33:53;25.10;50.50
14798;DHT22;7490;63.708;20.368;2023-05-10T07:36:19;25.10;50.20
14798;DHT22;7490;63.708;20.368;2023-05-10T07:38:45;24.90;49.60
14798;DHT22;7490;63.708;20.368;2023-05-10T07:41:12;24.50;49.50
14798;DHT22;7490;63.708;20.368;2023-05-10T07:43:37;24.10;50.20
14798;DHT22;7490;63.708;20.368;2023-05-10T07:46:04;23.90;50.10
14798;DHT22;7490;63.708;20.368;2023-05-10T07:48:30;23.80;50.20
14798;DHT22;7490;63.708;20.368;2023-05-10T07:50:56;23.90;50.00
14798;DHT22;7490;63.708;20.368;2023-05-10T07:53:22;24.20;49.00
14798;DHT22;7490;63.708;20.368;2023-05-10T07:55:51;24.60;48.00
14798;DHT22;7490;63.708;20.368;2023-05-10T07:58:19;24.70;46.40
14798;DHT22;7490;63.708;20.368;2023-05-10T08:00:45;24.80;46.30
14798;DHT22;7490;63.708;20.368;2023-05-10T08:03:11;25.00;45.70
14798;DHT22;7490;63.708;20.368;2023-05-10T08:05:37;25.40;45.00
14798;DHT22;7490;63.708;20.368;2023-05-10T08:08:02;25.70;44.00
14798;DHT22;7490;63.708;20.368;2023-05-10T08:10:28;25.80;43.40
14798;DHT22;7490;63.708;20.368;2023-05-10T08:12:54;25.80;43.60
14798;DHT22;7490;63.708;20.368;2023-05-10T08:15:20;25.80;43.40
14798;DHT22;7490;63.708;20.368;2023-05-10T08:17:45;25.40;43.50
14798;DHT22;7490;63.708;20.368;2023-05-10T08:20:11;24.80;43.50
14798;DHT22;7490;63.708;20.368;2023-05-10T08:22:38;24.20;44.20
14798;DHT22;7490;63.708;20.368;2023-05-10T08:25:04;23.60;45.10
14798;DHT22;7490;63.708;20.368;2023-05-10T08:27:29;23.30;45.70
14798;DHT22;7490;63.708;20.368;2023-05-10T08:29:55;23.20;45.40
14798;DHT22;7490;63.708;20.368;2023-05-10T08:32:21;23.00;44.60
14798;DHT22;7490;63.708;20.368;2023-05-10T08:34:46;22.70;44.50
14798;DHT22;7490;63.708;20.368;2023-05-10T08:37:12;22.30;45.20
14798;DHT22;7490;63.708;20.368;2023-05-10T08:39:38;22.00;45.70
14798;DHT22;7490;63.708;20.368;2023-05-10T08:42:04;21.60;45.90
14798;DHT22;7490;63.708;20.368;2023-05-10T08:44:35;21.00;46.20
14798;DHT22;7490;63.708;20.368;2023-05-10T08:47:04;20.40;47.40
14798;DHT22;7490;63.708;20.368;2023-05-10T08:49:31;20.10;48.20
14798;DHT22;7490;63.708;20.368;2023-05-10T08:52:01;19.70;48.50
14798;DHT22;7490;63.708;20.368;2023-05-10T08:54:28;19.20;49.40
14798;DHT22;7490;63.708;20.368;2023-05-10T08:56:55;18.90;50.10
14798;DHT22;7490;63.708;20.368;2023-05-10T08:59:22;18.60;50.90
14798;DHT22;7490;63.708;20.368;2023-05-10T09:01:48;18.20;51.20
14798;DHT22;7490;63.708;20.368;2023-05-10T09:04:14;17.80;51.90
14798;DHT22;7490;63.708;20.368;2023-05-10T09:06:40;17.40;52.60
14798;DHT22;7490;63.708;20.368;2023-05-10T09:09:07;17.00;52.90
14798;DHT22;7490;63.708;20.368;2023-05-10T09:11:33;16.70;53.30
14798;DHT22;7490;63.708;20.368;2023-05-10T09:13:58;16.40;54.00
14798;DHT22;7490;63.708;20.368;2023-05-10T09:16:24;16.20;54.60
14798;DHT22;7490;63.708;20.368;2023-05-10T09:18:50;16.00;55.20
14798;DHT22;7490;63.708;20.368;2023-05-10T09:21:16;15.90;55.20
14798;DHT22;7490;63.708;20.368;2023-05-10T09:23:48;15.60;55.60
14798;DHT22;7490;63.708;20.368;2023-05-10T09:26:15;15.50;56.30
14798;DHT22;7490;63.708;20.368;2023-05-10T09:28:52;15.40;56.50
14798;DHT22;7490;63.708;20.368;2023-05-10T09:31:18;15.20;56.90
14798;DHT22;7490;63.708;20.368;2023-05-10T09:33:45;15.10;57.20
14798;DHT22;7490;63.708;20.368;2023-05-10T09:36:11;15.00;57.80
14798;DHT22;7490;63.708;20.368;2023-05-10T09:38:51;14.90;58.10
14798;DHT22;7490;63.708;20.368;2023-05-10T09:41:21;14.80;58.80
14798;DHT22;7490;63.708;20.368;2023-05-10T09:43:48;14.80;58.90
14798;DHT22;7490;63.708;20.368;2023-05-10T09:46:15;14.70;59.00
14798;DHT22;7490;63.708;20.368;2023-05-10T09:48:48;14.70;59.10
14798;DHT22;7490;63.708;20.368;2023-05-10T09:51:23;14.70;59.30
14798;DHT22;7490;63.708;20.368;2023-05-10T09:54:09;14.70;59.60
14798;DHT22;7490;63.708;20.368;2023-05-10T09:56:36;14.70;59.50
14798;DHT22;7490;63.708;20.368;2023-05-10T09:59:04;14.80;59.20
14798;DHT22;7490;63.708;20.368;2023-05-10T10:01:31;14.70;59.30
14798;DHT22;7490;63.708;20.368;2023-05-10T10:03:57;14.70;59.60
14798;DHT22;7490;63.708;20.368;2023-05-10T10:06:24;14.70;59.50
14798;DHT22;7490;63.708;20.368;2023-05-10T10:08:50;14.80;59.60
14798;DHT22;7490;63.708;20.368;2023-05-10T10:11:16;14.80;59.60
14798;DHT22;7490;63.708;20.368;2023-05-10T10:13:42;14.90;59.70
14798;DHT22;7490;63.708;20.368;2023-05-10T10:16:08;14.90;59.40
14798;DHT22;7490;63.708;20.368;2023-05-10T10:18:36;14.80;59.10
14798;DHT22;7490;63.708;20.368;2023-05-10T10:21:05;14.80;59.40
14798;DHT22;7490;63.708;20.368;2023-05-10T10:23:32;14.80;59.90
14798;DHT22;7490;63.708;20.368;2023-05-10T10:25:58;14.90;60.00
14798;DHT22;7490;63.708;20.368;2023-05-10T10:28:32;15.00;59.90
14798;DHT22;7490;63.708;20.368;2023-05-10T10:31:13;15.00;59.90
14798;DHT22;7490;63.708;20.368;2023-05-10T10:34:00;15.30;59.70
14798;DHT22;7490;63.708;20.368;2023-05-10T10:36:27;15.50;58.80
14798;DHT22;7490;63.708;20.368;2023-05-10T10:38:57;15.70;58.40
14798;DHT22;7490;63.708;20.368;2023-05-10T10:41:31;16.10;58.30
14798;DHT22;7490;63.708;20.368;2023-05-10T10:52:27;17.20;55.10
14798;DHT22;7490;63.708;20.368;2023-05-10T10:55:00;17.10;54.80
14798;DHT22;7490;63.708;20.368;2023-05-10T10:57:27;17.00;55.00
14798;DHT22;7490;63.708;20.368;2023-05-10T11:02:46;17.00;55.50
14798;DHT22;7490;63.708;20.368;2023-05-10T11:10:35;17.00;55.10
14798;DHT22;7490;63.708;20.368;2023-05-10T11:13:03;16.70;55.20
14798;DHT22;7490;63.708;20.368;2023-05-10T11:15:36;16.20;55.80
14798;DHT22;7490;63.708;20.368;2023-05-10T11:18:23;15.80;56.80
14798;DHT22;7490;63.708;20.368;2023-05-10T11:21:01;15.30;57.30
14798;DHT22;7490;63.708;20.368;2023-05-10T11:23:33;14.90;57.90
14798;DHT22;7490;63.708;20.368;2023-05-10T11:26:13;14.50;58.60
14798;DHT22;7490;63.708;20.368;2023-05-10T11:28:43;14.10;59.20
14798;DHT22;7490;63.708;20.368;2023-05-10T11:31:09;13.80;59.90
14798;DHT22;7490;63.708;20.368;2023-05-10T11:33:52;13.60;60.80
14798;DHT22;7490;63.708;20.368;2023-05-10T11:36:20;13.40;61.30
14798;DHT22;7490;63.708;20.368;2023-05-10T11:38:46;13.20;61.50
14798;DHT22;7490;63.708;20.368;2023-05-10T11:41:13;13.00;62.40
14798;DHT22;7490;63.708;20.368;2023-05-10T11:43:39;12.90;63.10
14798;DHT22;7490;63.708;20.368;2023-05-10T11:46:10;12.80;63.30
14798;DHT22;7490;63.708;20.368;2023-05-10T11:48:39;12.80;63.80
14798;DHT22;7490;63.708;20.368;2023-05-10T11:51:06;12.70;63.70
14798;DHT22;7490;63.708;20.368;2023-05-10T11:53:33;12.50;64.10
14798;DHT22;7490;63.708;20.368;2023-05-10T11:56:09;12.50;64.70
14798;DHT22;7490;63.708;20.368;2023-05-10T11:58:37;12.40;64.90
14798;DHT22;7490;63.708;20.368;2023-05-10T12:01:04;12.40;65.30
14798;DHT22;7490;63.708;20.368;2023-05-10T12:03:31;12.30;65.60
14798;DHT22;7490;63.708;20.368;2023-05-10T12:05:58;12.20;65.60
14798;DHT22;7490;63.708;20.368;2023-05-10T12:08:25;12.10;65.90
14798;DHT22;7490;63.708;20.368;2023-05-10T12:10:52;12.10;66.60
14798;DHT22;7490;63.708;20.368;2023-05-10T12:13:19;12.10;67.10
14798;DHT22;7490;63.708;20.368;2023-05-10T12:15:45;12.10;67.30
14798;DHT22;7490;63.708;20.368;2023-05-10T12:18:12;12.20;67.10
14798;DHT22;7490;63.708;20.368;2023-05-10T12:20:39;12.20;67.00
14798;DHT22;7490;63.708;20.368;2023-05-10T12:23:07;12.30;67.00
14798;DHT22;7490;63.708;20.368;2023-05-10T12:25:34;12.40;67.10
14798;DHT22;7490;63.708;20.368;2023-05-10T12:28:04;12.40;66.90
14798;DHT22;7490;63.708;20.368;2023-05-10T12:30:31;12.40;67.20
14798;DHT22;7490;63.708;20.368;2023-05-10T12:33:23;12.40;67.40
14798;DHT22;7490;63.708;20.368;2023-05-10T12:35:51;12.50;67.20
14798;DHT22;7490;63.708;20.368;2023-05-10T12:38:37;12.50;67.20
14798;DHT22;7490;63.708;20.368;2023-05-10T12:41:08;12.50;67.00
14798;DHT22;7490;63.708;20.368;2023-05-10T12:43:35;12.50;66.90
14798;DHT22;7490;63.708;20.368;2023-05-10T12:46:12;12.50;66.80
14798;DHT22;7490;63.708;20.368;2023-05-10T12:48:39;12.50;67.00
14798;DHT22;7490;63.708;20.368;2023-05-10T12:51:05;12.50;67.00
14798;DHT22;7490;63.708;20.368;2023-05-10T12:53:35;12.40;66.80
14798;DHT22;7490;63.708;20.368;2023-05-10T12:56:00;12.30;66.80
14798;DHT22;7490;63.708;20.368;2023-05-10T12:58:26;12.30;67.00
14798;DHT22;7490;63.708;20.368;2023-05-10T13:00:52;12.20;67.10
14798;DHT22;7490;63.708;20.368;2023-05-10T13:03:18;12.20;67.30
14798;DHT22;7490;63.708;20.368;2023-05-10T13:05:43;12.20;67.40
14798;DHT22;7490;63.708;20.368;2023-05-10T13:08:09;12.10;67.50
14798;DHT22;7490;63.708;20.368;2023-05-10T13:10:35;12.10;67.70
14798;DHT22;7490;63.708;20.368;2023-05-10T13:13:01;12.00;67.70
14798;DHT22;7490;63.708;20.368;2023-05-10T13:15:26;12.00;68.30
14798;DHT22;7490;63.708;20.368;2023-05-10T13:17:53;12.00;68.30
14798;DHT22;7490;63.708;20.368;2023-05-10T13:20:19;11.90;68.10
14798;DHT22;7490;63.708;20.368;2023-05-10T13:22:45;11.80;68.20
14798;DHT22;7490;63.708;20.368;2023-05-10T13:25:11;11.70;68.60
14798;DHT22;7490;63.708;20.368;2023-05-10T13:27:37;11.60;69.20
14798;DHT22;7490;63.708;20.368;2023-05-10T13:30:07;11.60;69.50
14798;DHT22;7490;63.708;20.368;2023-05-10T13:32:33;11.50;69.70
14798;DHT22;7490;63.708;20.368;2023-05-10T13:34:59;11.50;69.80
14798;DHT22;7490;63.708;20.368;2023-05-10T13:37:25;11.40;70.10
14798;DHT22;7490;63.708;20.368;2023-05-10T13:39:50;11.40;70.40
14798;DHT22;7490;63.708;20.368;2023-05-10T13:42:17;11.40;70.40
14798;DHT22;7490;63.708;20.368;2023-05-10T13:44:43;11.40;70.70
14798;DHT22;7490;63.708;20.368;2023-05-10T13:47:08;11.40;71.00
14798;DHT22;7490;63.708;20.368;2023-05-10T13:49:34;11.50;71.20
14798;DHT22;7490;63.708;20.368;2023-05-10T13:52:00;11.50;71.10
14798;DHT22;7490;63.708;20.368;2023-05-10T13:54:35;11.60;71.00
14798;DHT22;7490;63.708;20.368;2023-05-10T13:57:01;11.60;70.90
14798;DHT22;7490;63.708;20.368;2023-05-10T13:59:27;11.60;70.80
14798;DHT22;7490;63.708;20.368;2023-05-10T14:01:52;11.50;71.00
14798;DHT22;7490;63.708;20.368;2023-05-10T14:04:18;11.50;71.10
14798;DHT22;7490;63.708;20.368;2023-05-10T14:06:43;11.50;71.40
14798;DHT22;7490;63.708;20.368;2023-05-10T14:09:09;11.40;71.50
14798;DHT22;7490;63.708;20.368;2023-05-10T14:11:35;11.40;71.70
14798;DHT22;7490;63.708;20.368;2023-05-10T14:14:01;11.40;71.70
14798;DHT22;7490;63.708;20.368;2023-05-10T14:16:26;11.40;71.70
14798;DHT22;7490;63.708;20.368;2023-05-10T14:18:52;11.40;71.80
14798;DHT22;7490;63.708;20.368;2023-05-10T14:21:18;11.30;71.80
14798;DHT22;7490;63.708;20.368;2023-05-10T14:23:44;11.30;72.00
14798;DHT22;7490;63.708;20.368;2023-05-10T14:26:09;11.20;71.90
14798;DHT22;7490;63.708;20.368;2023-05-10T14:28:35;11.20;72.10
14798;DHT22;7490;63.708;20.368;2023-05-10T14:31:01;11.20;72.10
14798;DHT22;7490;63.708;20.368;2023-05-10T14:33:27;11.10;72.20
14798;DHT22;7490;63.708;20.368;2023-05-10T14:35:53;11.00;72.40
14798;DHT22;7490;63.708;20.368;2023-05-10T14:38:20;11.00;72.70
14798;DHT22;7490;63.708;20.368;2023-05-10T14:40:45;11.00;72.80
14798;DHT22;7490;63.708;20.368;2023-05-10T14:43:11;11.00;73.10
14798;DHT22;7490;63.708;20.368;2023-05-10T14:45:36;11.00;73.30
14798;DHT22;7490;63.708;20.368;2023-05-10T14:48:02;11.00;73.40
14798;DHT22;7490;63.708;20.368;2023-05-10T14:50:30;11.00;73.50
14798;DHT22;7490;63.708;20.368;2023-05-10T14:52:57;11.00;73.60
14798;DHT22;7490;63.708;20.368;2023-05-10T14:55:24;11.10;73.70
14798;DHT22;7490;63.708;20.368;2023-05-10T14:57:50;11.20;73.70
14798;DHT22;7490;63.708;20.368;2023-05-10T15:00:16;11.20;73.50
14798;DHT22;7490;63.708;20.368;2023-05-10T15:02:42;11.20;73.40
14798;DHT22;7490;63.708;20.368;2023-05-10T15:05:08;11.30;73.50
14798;DHT22;7490;63.708;20.368;2023-05-10T15:07:33;11.30;73.40
14798;DHT22;7490;63.708;20.368;2023-05-10T15:09:59;11.30;73.30
14798;DHT22;7490;63.708;20.368;2023-05-10T15:12:24;11.40;73.40
14798;DHT22;7490;63.708;20.368;2023-05-10T15:14:50;11.40;73.40
14798;DHT22;7490;63.708;20.368;2023-05-10T15:17:16;11.40;73.30
14798;DHT22;7490;63.708;20.368;2023-05-10T15:19:42;11.40;73.30
14798;DHT22;7490;63.708;20.368;2023-05-10T15:22:08;11.40;73.40
14798;DHT22;7490;63.708;20.368;2023-05-10T15:24:34;11.50;73.60
14798;DHT22;7490;63.708;20.368;2023-05-10T15:26:59;11.50;73.40
14798;DHT22;7490;63.708;20.368;2023-05-10T15:29:26;11.60;73.10
14798;DHT22;7490;63.708;20.368;2023-05-10T15:31:51;11.60;73.00
14798;DHT22;7490;63.708;20.368;2023-05-10T15:34:17;11.60;72.90
14798;DHT22;7490;63.708;20.368;2023-05-10T15:36:44;11.70;72.90
14798;DHT22;7490;63.708;20.368;2023-05-10T15:39:11;11.70;72.80
14798;DHT22;7490;63.708;20.368;2023-05-10T15:41:37;11.60;72.60
14798;DHT22;7490;63.708;20.368;2023-05-10T15:44:03;11.60;72.60
14798;DHT22;7490;63.708;20.368;2023-05-10T15:46:29;11.60;72.50
14798;DHT22;7490;63.708;20.368;2023-05-10T15:48:58;11.60;72.50
14798;DHT22;7490;63.708;20.368;2023-05-10T15:51:25;11.60;72.50
14798;DHT22;7490;63.708;20.368;2023-05-10T15:53:51;11.60;72.40
14798;DHT22;7490;63.708;20.368;2023-05-10T15:56:16;11.60;72.40
14798;DHT22;7490;63.708;20.368;2023-05-10T15:58:42;11.60;72.40
14798;DHT22;7490;63.708;20.368;2023-05-10T16:01:09;11.50;72.20
14798;DHT22;7490;63.708;20.368;2023-05-10T16:03:36;11.50;72.30
14798;DHT22;7490;63.708;20.368;2023-05-10T16:06:02;11.50;72.50
14798;DHT22;7490;63.708;20.368;2023-05-10T16:08:28;11.50;72.50